Time;durP1;ratioP1;P1;durP2;ratioP2;P2;SDS_P1;SDS_P2;PMS_P1;PMS_P2;Temp;Humidity;BMP_temperature;BMP_pressure;BME280_temperature;BME280_humidity;BME280_pressure;Samples;Min_cycle;Max_cycle;Signal;HPM_P1;HPM_P2
2023/06/11 00:00:09;;;;;;;11.52;5.20;;;19.50;84.40;;;;;;6278889;22;20411;-89
2023/06/11 00:02:35;;;;;;;10.60;5.63;;;19.40;84.90;;;;;;6252607;22;20000;-89
2023/06/11 00:05:04;;;;;;;14.80;5.80;;;19.40;85.10;;;;;;6252251;22;20011;-90
2023/06/11 00:07:30;;;;;;;15.00;5.45;;;19.30;85.40;;;;;;6253887;22;20102;-89
2023/06/11 00:09:56;;;;;;;18.10;5.88;;;19.30;85.50;;;;;;6254801;22;20150;-89
2023/06/11 00:12:21;;;;;;;11.60;5.65;;;19.30;85.50;;;;;;6257163;22;20027;-89
2023/06/11 00:14:47;;;;;;;15.05;6.10;;;19.20;85.80;;;;;;6258666;22;19999;-89
2023/06/11 00:17:12;;;;;;;13.77;6.13;;;19.20;85.80;;;;;;6257700;22;20010;-89
2023/06/11 00:19:40;;;;;;;15.40;6.65;;;19.10;85.60;;;;;;6258705;22;20007;-88
2023/06/11 00:22:08;;;;;;;13.63;6.28;;;19.10;85.60;;;;;;6265117;22;20011;-89
2023/06/11 00:24:34;;;;;;;22.85;5.97;;;19.10;85.50;;;;;;6290243;22;19995;-88
2023/06/11 00:27:01;;;;;;;12.13;6.45;;;19.10;85.80;;;;;;6256997;22;20027;-89
2023/06/11 00:29:28;;;;;;;16.15;6.35;;;19.00;86.00;;;;;;6252041;22;20035;-89
2023/06/11 00:31:54;;;;;;;13.00;5.68;;;19.00;86.30;;;;;;6279269;22;19999;-89
2023/06/11 00:34:20;;;;;;;11.45;5.68;;;19.00;86.40;;;;;;6252684;22;20098;-89
2023/06/11 00:36:45;;;;;;;15.30;5.70;;;19.00;86.60;;;;;;6252366;22;20008;-90
2023/06/11 00:39:12;;;;;;;10.93;5.68;;;19.00;86.90;;;;;;6252417;22;20462;-89
2023/06/11 00:41:39;;;;;;;11.02;5.40;;;18.90;87.20;;;;;;6251204;22;20546;-89
2023/06/11 00:44:06;;;;;;;13.52;5.68;;;18.90;87.70;;;;;;6251655;22;20007;-88
2023/06/11 00:46:32;;;;;;;13.73;5.05;;;18.90;88.00;;;;;;6251242;22;20008;-88
2023/06/11 00:48:58;;;;;;;12.32;6.18;;;18.90;88.40;;;;;;6251497;22;20073;-89
2023/06/11 00:51:25;;;;;;;15.27;6.25;;;18.80;88.90;;;;;;6251304;22;20030;-88
2023/06/11 00:53:52;;;;;;;12.65;5.70;;;18.80;89.30;;;;;;6251410;22;20012;-88
2023/06/11 00:56:19;;;;;;;14.85;5.90;;;18.70;89.50;;;;;;6250990;22;20016;-89
2023/06/11 00:58:49;;;;;;;16.10;6.75;;;18.70;89.80;;;;;;6251453;22;20423;-89
2023/06/11 01:01:26;;;;;;;12.43;6.50;;;18.70;90.10;;;;;;6250394;22;20007;-89
2023/06/11 01:03:57;;;;;;;15.10;6.35;;;18.60;90.20;;;;;;6251104;22;20035;-89
2023/06/11 01:06:28;;;;;;;15.95;5.80;;;18.70;90.50;;;;;;6251239;22;20006;-89
2023/06/11 01:08:57;;;;;;;18.88;6.35;;;18.60;90.60;;;;;;6251900;22;20558;-88
2023/06/11 01:11:23;;;;;;;20.42;5.88;;;18.60;90.90;;;;;;6250818;22;20430;-89
2023/06/11 01:13:51;;;;;;;15.60;6.00;;;18.50;91.20;;;;;;6251313;22;20038;-88
2023/06/11 01:16:37;;;;;;;12.45;5.65;;;18.50;91.50;;;;;;6251188;22;20083;-88
2023/06/11 01:19:29;;;;;;;13.40;5.88;;;18.50;91.80;;;;;;6252683;22;20084;-89
2023/06/11 01:22:00;;;;;;;18.55;6.22;;;18.50;92.10;;;;;;6265051;22;19999;-88
2023/06/11 01:24:44;;;;;;;;;;;18.40;92.20;;;;;;6256879;22;20011;-89
2023/06/11 01:27:25;;;;;;;14.32;6.47;;;18.40;92.50;;;;;;6252157;22;19915;-89
2023/06/11 01:29:52;;;;;;;12.35;6.00;;;18.30;92.60;;;;;;6255395;22;20000;-88
2023/06/11 01:32:23;;;;;;;15.82;7.03;;;18.30;92.80;;;;;;6251015;22;20004;-89
2023/06/11 01:34:49;;;;;;;14.68;6.88;;;18.30;93.00;;;;;;6251654;22;20091;-88
2023/06/11 01:37:15;;;;;;;14.63;7.13;;;18.30;93.10;;;;;;6251342;22;20015;-88
2023/06/11 01:39:45;;;;;;;17.40;7.22;;;18.20;93.30;;;;;;6250716;22;20000;-88
2023/06/11 01:42:11;;;;;;;21.60;7.15;;;18.10;93.60;;;;;;6250885;22;20427;-88
2023/06/11 01:44:37;;;;;;;14.82;6.43;;;18.10;93.80;;;;;;6251462;22;20003;-88
2023/06/11 01:47:03;;;;;;;14.68;6.30;;;18.00;94.00;;;;;;6278686;22;20026;-90
2023/06/11 01:49:28;;;;;;;23.80;6.60;;;18.00;94.20;;;;;;6278830;22;20004;-88
2023/06/11 01:51:54;;;;;;;12.88;6.35;;;18.00;94.50;;;;;;6251480;22;20376;-88
2023/06/11 01:54:20;;;;;;;18.98;7.47;;;17.90;94.70;;;;;;6250437;22;20003;-89
2023/06/11 01:56:46;;;;;;;17.33;5.97;;;17.90;94.80;;;;;;6250857;22;20018;-89
2023/06/11 01:59:12;;;;;;;20.05;6.72;;;17.90;95.00;;;;;;6251435;22;20091;-89
2023/06/11 02:01:40;;;;;;;12.45;6.75;;;17.90;95.20;;;;;;6251553;22;20081;-89
2023/06/11 02:04:06;;;;;;;16.05;6.15;;;17.90;95.30;;;;;;6251557;22;20014;-88
2023/06/11 02:06:32;;;;;;;16.67;6.60;;;17.90;95.40;;;;;;6251461;22;20027;-89
2023/06/11 02:08:57;;;;;;;19.90;7.50;;;17.80;95.40;;;;;;6251223;22;20004;-89
2023/06/11 02:11:23;;;;;;;18.20;6.95;;;17.80;95.50;;;;;;6251255;22;20030;-88
2023/06/11 02:13:59;;;;;;;14.48;6.63;;;17.80;95.70;;;;;;6228482;22;20042;-88
2023/06/11 02:16:26;;;;;;;14.02;6.15;;;17.70;95.90;;;;;;6250878;22;20008;-89
2023/06/11 02:18:51;;;;;;;15.60;6.43;;;17.70;96.10;;;;;;6251446;22;20014;-89
2023/06/11 02:21:17;;;;;;;15.48;6.25;;;17.70;96.20;;;;;;6251054;22;20003;-88
2023/06/11 02:23:43;;;;;;;22.52;6.88;;;17.70;96.40;;;;;;6250698;22;20061;-88
2023/06/11 02:26:08;;;;;;;15.48;6.40;;;17.70;96.50;;;;;;6277997;22;20076;-88
2023/06/11 02:28:34;;;;;;;14.98;6.20;;;17.70;96.60;;;;;;6250789;22;20008;-89
2023/06/11 02:31:00;;;;;;;12.95;6.53;;;17.70;96.70;;;;;;6250638;22;20003;-87
2023/06/11 02:33:27;;;;;;;18.33;6.50;;;17.70;96.80;;;;;;6277642;22;20370;-89
2023/06/11 02:35:52;;;;;;;16.83;5.93;;;17.60;96.60;;;;;;6249534;22;20003;-89
2023/06/11 02:38:18;;;;;;;14.60;6.57;;;17.60;96.50;;;;;;6250562;22;20078;-89
2023/06/11 02:40:43;;;;;;;15.32;6.38;;;17.60;96.50;;;;;;6251119;22;20441;-88
2023/06/11 02:43:09;;;;;;;18.42;6.30;;;17.60;96.70;;;;;;6251338;22;20003;-89
2023/06/11 02:45:35;;;;;;;17.77;6.60;;;17.60;96.90;;;;;;6251447;22;20007;-88
2023/06/11 02:48:01;;;;;;;17.73;6.20;;;17.60;97.10;;;;;;6280927;22;20065;-89
2023/06/11 02:50:27;;;;;;;15.35;6.80;;;17.50;97.20;;;;;;6255387;22;20082;-90
2023/06/11 02:52:52;;;;;;;15.88;7.03;;;17.50;97.20;;;;;;6256844;22;20063;-87
2023/06/11 02:55:18;;;;;;;17.50;6.97;;;17.50;97.30;;;;;;6277111;22;20043;-87
2023/06/11 02:57:44;;;;;;;16.10;6.88;;;17.50;97.40;;;;;;6276664;22;20016;-87
2023/06/11 03:00:10;;;;;;;19.10;7.82;;;17.50;97.50;;;;;;6261794;22;20044;-89
2023/06/11 03:02:36;;;;;;;18.35;7.15;;;17.50;97.70;;;;;;6249977;22;20000;-88
2023/06/11 03:05:02;;;;;;;17.98;5.93;;;17.50;97.80;;;;;;6278110;22;20057;-87
2023/06/11 03:07:28;;;;;;;14.43;6.05;;;17.40;97.90;;;;;;6250271;22;20446;-88
2023/06/11 03:09:54;;;;;;;17.50;6.15;;;17.40;98.00;;;;;;6250890;22;20041;-89
2023/06/11 03:12:20;;;;;;;14.80;6.20;;;17.30;98.10;;;;;;6276171;22;20012;-88
2023/06/11 03:14:46;;;;;;;15.80;6.80;;;17.30;98.30;;;;;;6250963;22;20012;-88
2023/06/11 03:17:11;;;;;;;13.10;5.88;;;17.30;98.50;;;;;;6251616;22;20088;-89
2023/06/11 03:19:37;;;;;;;18.25;6.35;;;17.30;98.60;;;;;;6265977;22;20003;-89
2023/06/11 03:22:03;;;;;;;15.63;6.30;;;17.30;98.80;;;;;;6255128;22;20007;-89
2023/06/11 03:24:28;;;;;;;19.80;6.05;;;17.20;99.00;;;;;;6250439;22;20106;-88
2023/06/11 03:26:54;;;;;;;15.48;5.63;;;17.20;99.30;;;;;;6250375;22;20451;-89
2023/06/11 03:29:20;;;;;;;15.35;6.07;;;17.20;99.40;;;;;;6250794;22;20011;-89
2023/06/11 03:31:45;;;;;;;11.77;5.43;;;17.20;99.50;;;;;;6251237;22;20386;-88
2023/06/11 03:34:11;;;;;;;20.90;7.50;;;17.20;99.70;;;;;;6250939;22;20490;-88
2023/06/11 03:36:37;;;;;;;17.98;7.00;;;17.20;99.80;;;;;;6251480;22;20062;-89
2023/06/11 03:39:03;;;;;;;25.98;8.00;;;17.10;99.80;;;;;;6250835;22;20034;-88
2023/06/11 03:41:28;;;;;;;15.18;5.95;;;17.10;99.90;;;;;;6251755;22;20083;-90
2023/06/11 03:43:54;;;;;;;12.32;6.25;;;17.10;99.90;;;;;;6250778;22;20012;-89
2023/06/11 03:46:21;;;;;;;19.65;6.22;;;17.10;99.90;;;;;;6250894;22;20067;-89
2023/06/11 03:48:47;;;;;;;13.77;6.00;;;17.00;99.90;;;;;;6252930;22;20008;-88
2023/06/11 03:51:14;;;;;;;14.43;6.18;;;17.00;99.90;;;;;;6256769;22;20090;-88
2023/06/11 03:53:40;;;;;;;13.90;6.32;;;17.00;99.90;;;;;;6259603;22;20069;-88
2023/06/11 03:56:05;;;;;;;15.60;6.45;;;16.90;99.90;;;;;;6264439;22;20003;-87
2023/06/11 03:58:31;;;;;;;15.57;6.13;;;16.90;99.90;;;;;;6289738;22;20034;-89
2023/06/11 04:00:57;;;;;;;9.32;5.72;;;16.90;99.90;;;;;;6259366;22;20424;-87
2023/06/11 04:03:23;;;;;;;21.58;6.22;;;16.90;99.90;;;;;;6258186;22;19999;-88
2023/06/11 04:05:49;;;;;;;15.13;6.15;;;16.80;99.90;;;;;;6257297;22;20366;-88
2023/06/11 04:08:15;;;;;;;18.73;6.45;;;16.80;99.90;;;;;;6258491;22;20342;-88
2023/06/11 04:10:41;;;;;;;15.05;6.68;;;16.80;99.90;;;;;;6256720;22;20027;-88
2023/06/11 04:13:06;;;;;;;18.77;6.40;;;16.80;99.90;;;;;;6283923;22;20045;-88
2023/06/11 04:15:33;;;;;;;15.88;5.75;;;16.80;99.90;;;;;;6283055;22;19995;-88
2023/06/11 04:17:59;;;;;;;16.23;6.72;;;16.80;99.90;;;;;;6256414;22;20354;-89
2023/06/11 04:20:24;;;;;;;20.33;7.28;;;16.80;99.90;;;;;;6257688;22;20019;-89
2023/06/11 04:22:50;;;;;;;14.68;5.68;;;16.70;99.90;;;;;;6255958;22;20011;-89
2023/06/11 04:25:16;;;;;;;11.52;6.30;;;16.70;99.90;;;;;;6254235;22;20003;-89
2023/06/11 04:27:43;;;;;;;15.88;6.80;;;16.60;99.90;;;;;;6253289;22;20019;-88
2023/06/11 04:30:09;;;;;;;37.97;8.57;;;16.60;99.90;;;;;;6253443;22;20000;-89
2023/06/11 04:32:36;;;;;;;18.30;7.15;;;16.60;99.90;;;;;;6252905;22;20493;-88
2023/06/11 04:35:03;;;;;;;19.40;6.32;;;16.60;99.90;;;;;;6253184;22;20008;-88
2023/06/11 04:37:30;;;;;;;16.45;6.55;;;16.50;99.90;;;;;;6252928;22;20004;-89
2023/06/11 04:40:08;;;;;;;13.40;6.18;;;16.50;99.90;;;;;;6253311;22;20049;-88
2023/06/11 04:42:35;;;;;;;14.63;6.45;;;16.50;99.90;;;;;;6253710;22;20003;-88
2023/06/11 04:45:02;;;;;;;15.57;6.55;;;16.50;99.90;;;;;;6253657;22;20091;-88
2023/06/11 04:47:29;;;;;;;21.33;6.43;;;16.50;99.90;;;;;;6252497;22;20072;-88
2023/06/11 04:49:56;;;;;;;22.42;7.35;;;16.50;99.90;;;;;;6252775;22;20416;-88
2023/06/11 04:52:23;;;;;;;15.05;6.55;;;16.50;99.90;;;;;;6279471;22;20086;-88
2023/06/11 04:54:48;;;;;;;15.10;6.15;;;16.50;99.90;;;;;;6252842;22;20000;-89
2023/06/11 04:57:14;;;;;;;16.85;6.45;;;16.40;99.90;;;;;;6252640;22;20016;-89
2023/06/11 04:59:40;;;;;;;14.15;6.22;;;16.40;99.90;;;;;;6252749;22;20030;-88
2023/06/11 05:02:05;;;;;;;15.98;5.85;;;16.40;99.90;;;;;;6252940;22;20003;-89
2023/06/11 05:04:31;;;;;;;18.88;6.30;;;16.40;99.90;;;;;;6251611;22;20327;-88
2023/06/11 05:07:00;;;;;;;21.05;7.47;;;16.40;99.90;;;;;;6252356;22;20004;-89
2023/06/11 05:09:25;;;;;;;25.48;6.97;;;16.50;99.90;;;;;;6252536;22;20008;-88
2023/06/11 05:11:51;;;;;;;21.67;6.50;;;16.50;99.90;;;;;;6253132;22;20029;-88
2023/06/11 05:14:17;;;;;;;21.27;7.43;;;16.40;99.90;;;;;;6253148;22;20049;-89
2023/06/11 05:16:42;;;;;;;21.52;7.00;;;16.40;99.90;;;;;;6266048;22;20004;-89
2023/06/11 05:19:08;;;;;;;23.02;7.88;;;16.40;99.90;;;;;;6260966;22;20007;-90
2023/06/11 05:21:34;;;;;;;19.05;6.45;;;16.50;99.90;;;;;;6280099;22;20440;-88
2023/06/11 05:24:07;;;;;;;22.27;6.82;;;16.50;99.90;;;;;;6278653;22;20004;-89
2023/06/11 05:26:36;;;;;;;22.73;7.88;;;16.50;99.90;;;;;;6252040;22;20004;-88
2023/06/11 05:29:03;;;;;;;17.80;7.05;;;16.60;99.90;;;;;;6251450;22;20027;-88
2023/06/11 05:31:35;;;;;;;16.90;6.95;;;16.60;99.90;;;;;;6251391;22;19999;-88
2023/06/11 05:34:01;;;;;;;17.45;6.72;;;16.60;99.90;;;;;;6251453;22;20027;-88
2023/06/11 05:36:27;;;;;;;17.63;6.60;;;16.70;99.90;;;;;;6251917;22;20011;-89
2023/06/11 05:38:53;;;;;;;15.15;6.13;;;16.70;99.90;;;;;;6251755;22;20105;-89
2023/06/11 05:41:20;;;;;;;23.23;6.80;;;16.80;99.90;;;;;;6252027;22;20027;-89
2023/06/11 05:43:46;;;;;;;15.70;5.88;;;16.80;99.90;;;;;;6251606;22;20011;-89
2023/06/11 05:46:13;;;;;;;17.65;6.40;;;16.90;99.90;;;;;;6251350;22;20006;-90
2023/06/11 05:48:40;;;;;;;18.45;6.30;;;16.90;99.90;;;;;;6278918;22;20060;-89
2023/06/11 05:51:06;;;;;;;20.65;7.13;;;17.00;99.90;;;;;;6251335;22;20015;-89
2023/06/11 05:53:32;;;;;;;17.90;6.60;;;17.00;99.90;;;;;;6251186;22;20022;-88
2023/06/11 05:56:03;;;;;;;19.20;6.75;;;17.10;99.90;;;;;;6277967;22;20008;-89
2023/06/11 05:58:31;;;;;;;17.67;6.85;;;17.20;99.90;;;;;;6250939;22;20007;-88
2023/06/11 06:00:57;;;;;;;19.35;6.93;;;17.30;99.90;;;;;;6250656;22;20003;-89
2023/06/11 06:03:23;;;;;;;16.52;6.25;;;17.40;99.90;;;;;;6278144;22;20000;-89
2023/06/11 06:05:48;;;;;;;16.23;6.13;;;17.50;99.90;;;;;;6250940;22;20315;-89
2023/06/11 06:08:14;;;;;;;23.77;6.68;;;17.60;99.90;;;;;;6250746;22;20455;-89
2023/06/11 06:10:40;;;;;;;20.52;6.97;;;17.60;99.90;;;;;;6252702;22;20008;-89
2023/06/11 06:13:05;;;;;;;20.75;6.45;;;17.70;99.90;;;;;;6252646;22;20099;-89
2023/06/11 06:15:31;;;;;;;18.77;6.30;;;17.80;99.90;;;;;;6252762;22;19999;-89
2023/06/11 06:17:57;;;;;;;16.13;5.90;;;17.90;99.90;;;;;;6251087;22;20419;-88
2023/06/11 06:20:22;;;;;;;19.20;6.50;;;18.00;99.90;;;;;;6250869;22;19999;-89
2023/06/11 06:22:48;;;;;;;12.85;6.43;;;18.10;99.90;;;;;;6250436;22;20008;-89
2023/06/11 06:25:15;;;;;;;17.02;5.97;;;18.10;99.90;;;;;;6250607;22;20027;-89
2023/06/11 06:27:41;;;;;;;17.52;6.55;;;18.10;99.90;;;;;;6250084;22;20011;-88
2023/06/11 06:30:07;;;;;;;21.33;6.60;;;18.20;99.90;;;;;;6250635;22;20078;-89
2023/06/11 06:32:33;;;;;;;18.45;5.75;;;18.20;99.90;;;;;;6250434;22;20423;-89
2023/06/11 06:34:59;;;;;;;16.90;6.50;;;18.30;99.90;;;;;;6250522;22;20038;-88
2023/06/11 06:37:27;;;;;;;15.95;5.65;;;18.40;99.90;;;;;;6250436;22;20095;-89
2023/06/11 06:39:53;;;;;;;16.63;5.07;;;18.40;99.90;;;;;;6277648;22;20016;-88
2023/06/11 06:42:20;;;;;;;14.43;5.78;;;18.50;99.40;;;;;;6252289;22;20393;-88
2023/06/11 06:44:46;;;;;;;28.00;5.80;;;18.50;99.10;;;;;;6252110;22;20008;-89
2023/06/11 06:47:14;;;;;;;22.88;6.60;;;18.50;98.80;;;;;;6236004;22;20083;-89
2023/06/11 06:49:40;;;;;;;15.95;5.68;;;18.50;98.40;;;;;;6262125;22;20045;-88
2023/06/11 06:52:06;;;;;;;17.60;5.07;;;18.50;98.20;;;;;;6297312;22;19988;-90
2023/06/11 06:54:32;;;;;;;17.83;4.95;;;18.50;98.20;;;;;;6276261;22;20004;-88
2023/06/11 06:56:57;;;;;;;15.65;5.28;;;18.60;98.40;;;;;;6276205;22;20025;-89
2023/06/11 06:59:23;;;;;;;21.30;5.70;;;18.60;98.50;;;;;;6283581;22;20086;-88
2023/06/11 07:01:49;;;;;;;23.38;6.90;;;18.70;98.70;;;;;;6253935;22;20054;-90
2023/06/11 07:04:14;;;;;;;18.48;5.15;;;18.70;98.90;;;;;;6252435;22;20502;-89
2023/06/11 07:06:42;;;;;;;14.15;5.47;;;18.70;99.30;;;;;;6252580;22;20004;-88
2023/06/11 07:09:08;;;;;;;16.52;5.45;;;18.70;99.70;;;;;;6251763;22;20015;-89
2023/06/11 07:11:34;;;;;;;19.45;5.78;;;18.80;99.80;;;;;;6252540;22;20003;-89
2023/06/11 07:14:00;;;;;;;12.60;4.65;;;18.80;99.80;;;;;;6262285;22;20606;-89
2023/06/11 07:16:26;;;;;;;20.83;5.22;;;18.90;99.80;;;;;;6261278;22;20003;-88
2023/06/11 07:18:51;;;;;;;18.77;5.38;;;18.90;99.90;;;;;;6251494;22;20004;-89
2023/06/11 07:21:17;;;;;;;15.00;5.57;;;19.00;99.90;;;;;;6251612;22;20090;-88
2023/06/11 07:23:43;;;;;;;13.88;5.45;;;19.00;99.50;;;;;;6251914;22;20008;-90
2023/06/11 07:26:11;;;;;;;19.38;5.03;;;19.00;99.20;;;;;;6252242;22;20416;-88
2023/06/11 07:28:39;;;;;;;16.40;5.45;;;19.20;99.00;;;;;;6278248;22;20015;-89
2023/06/11 07:31:05;;;;;;;19.05;5.95;;;19.30;98.80;;;;;;6251582;22;20000;-90
2023/06/11 07:33:31;;;;;;;19.25;6.30;;;19.40;98.30;;;;;;6277843;22;20007;-89
2023/06/11 07:35:56;;;;;;;17.20;5.65;;;19.40;97.80;;;;;;6251426;22;20004;-90
2023/06/11 07:38:22;;;;;;;12.52;5.35;;;19.50;97.50;;;;;;6251707;22;20000;-88
2023/06/11 07:40:48;;;;;;;16.58;5.28;;;19.60;97.20;;;;;;6251592;22;20007;-89
2023/06/11 07:43:14;;;;;;;17.40;6.03;;;19.70;96.90;;;;;;6250677;22;20006;-89
2023/06/11 07:45:39;;;;;;;24.20;6.07;;;19.80;96.50;;;;;;6251118;22;20012;-89
2023/06/11 07:48:05;;;;;;;20.58;5.43;;;19.80;96.20;;;;;;6249949;22;20058;-89
2023/06/11 07:50:31;;;;;;;13.90;5.50;;;19.80;95.80;;;;;;6254437;22;20046;-89
2023/06/11 07:52:57;;;;;;;14.90;5.03;;;19.80;95.80;;;;;;6286582;22;20055;-89
2023/06/11 07:55:23;;;;;;;16.73;5.13;;;19.80;95.80;;;;;;6260066;22;20004;-90
2023/06/11 07:57:48;;;;;;;19.38;6.00;;;19.90;95.60;;;;;;6258679;22;20008;-90
2023/06/11 08:00:16;;;;;;;20.58;5.03;;;19.90;95.50;;;;;;6258733;22;20007;-88
2023/06/11 08:02:43;;;;;;;16.48;5.68;;;19.90;95.40;;;;;;6259383;22;20010;-89
2023/06/11 08:05:17;;;;;;;19.92;4.93;;;20.00;95.20;;;;;;6260593;22;20082;-89
2023/06/11 08:07:47;;;;;;;17.58;5.65;;;20.10;95.00;;;;;;6254934;22;20020;-89
2023/06/11 08:10:12;;;;;;;16.33;6.27;;;20.20;94.60;;;;;;6253198;22;20029;-88
2023/06/11 08:12:39;;;;;;;16.75;5.25;;;20.40;94.20;;;;;;6252718;22;20004;-90
2023/06/11 08:15:05;;;;;;;18.58;6.03;;;20.50;93.80;;;;;;6252390;22;20004;-89
2023/06/11 08:17:30;;;;;;;15.88;5.30;;;20.70;93.60;;;;;;6252012;22;20062;-89
2023/06/11 08:19:56;;;;;;;19.55;5.65;;;20.80;93.10;;;;;;6252666;22;20007;-89
2023/06/11 08:22:22;;;;;;;13.20;5.05;;;20.90;92.80;;;;;;6252385;22;20000;-88
2023/06/11 08:24:48;;;;;;;12.45;4.55;;;21.10;92.60;;;;;;6252118;22;20014;-88
2023/06/11 08:27:13;;;;;;;15.88;4.88;;;21.10;92.30;;;;;;6252706;22;20015;-89
2023/06/11 08:29:39;;;;;;;19.80;5.15;;;21.30;92.10;;;;;;6253049;22;19996;-90
2023/06/11 08:32:05;;;;;;;13.02;4.78;;;21.40;91.80;;;;;;6251526;22;20004;-90
2023/06/11 08:34:31;;;;;;;17.10;4.90;;;21.60;91.60;;;;;;6279506;22;20000;-90
2023/06/11 08:36:57;;;;;;;15.13;5.20;;;21.90;91.30;;;;;;6279345;22;20000;-90
2023/06/11 08:39:23;;;;;;;17.55;5.32;;;22.10;90.70;;;;;;6252452;22;20030;-90
2023/06/11 08:41:48;;;;;;;14.32;4.57;;;22.20;90.00;;;;;;6252058;22;20012;-90
2023/06/11 08:44:14;;;;;;;20.83;4.70;;;22.40;88.60;;;;;;6252148;22;20000;-89
2023/06/11 08:46:44;;;;;;;13.65;5.03;;;22.50;87.60;;;;;;6252152;22;20023;-90
2023/06/11 08:49:23;;;;;;;16.38;5.05;;;22.60;86.70;;;;;;6278905;22;20447;-90
2023/06/11 08:51:49;;;;;;;15.77;4.88;;;22.80;85.60;;;;;;6251959;22;20000;-89
2023/06/11 08:54:16;;;;;;;12.02;4.60;;;22.80;84.70;;;;;;6252104;22;20078;-90
2023/06/11 08:56:43;;;;;;;17.55;4.88;;;22.90;84.10;;;;;;6249672;23;20020;-89
2023/06/11 08:59:09;;;;;;;15.75;4.53;;;23.10;83.60;;;;;;6246842;23;20004;-89
2023/06/11 09:01:34;;;;;;;11.95;4.00;;;23.20;82.90;;;;;;6246635;23;20008;-90
2023/06/11 09:04:00;;;;;;;15.90;4.53;;;23.40;82.30;;;;;;6246053;23;20004;-89
2023/06/11 09:06:28;;;;;;;12.90;4.55;;;23.50;81.40;;;;;;6246870;23;20016;-90
2023/06/11 09:09:07;;;;;;;13.10;4.25;;;23.70;80.70;;;;;;6248596;23;20007;-88
2023/06/11 09:11:34;;;;;;;11.15;4.28;;;23.80;79.90;;;;;;6254146;23;20066;-88
2023/06/11 09:14:04;;;;;;;13.70;5.30;;;24.00;79.20;;;;;;6266676;23;20023;-87
2023/06/11 09:16:38;;;;;;;13.07;4.57;;;24.10;78.40;;;;;;6247444;23;20091;-88
2023/06/11 09:19:04;;;;;;;19.23;5.32;;;24.30;77.90;;;;;;6246302;23;20082;-88
2023/06/11 09:21:30;;;;;;;15.65;4.13;;;24.40;77.70;;;;;;6246609;23;20004;-89
2023/06/11 09:24:07;;;;;;;13.25;4.25;;;24.60;76.90;;;;;;6246350;23;20008;-90
2023/06/11 09:26:33;;;;;;;15.80;5.25;;;24.80;76.50;;;;;;6246153;23;20013;-89
2023/06/11 09:29:05;;;;;;;20.58;5.50;;;24.80;76.00;;;;;;6247400;22;20008;-89
2023/06/11 09:31:31;;;;;;;10.60;4.55;;;24.90;75.40;;;;;;6245852;23;20038;-89
2023/06/11 09:34:06;;;;;;;14.63;4.60;;;24.90;75.10;;;;;;6246233;23;20082;-90
2023/06/11 09:36:31;;;;;;;15.68;4.65;;;25.10;75.00;;;;;;6248670;23;20000;-89
2023/06/11 09:38:57;;;;;;;10.75;4.60;;;25.30;74.50;;;;;;6245764;23;20004;-90
2023/06/11 09:41:23;;;;;;;15.68;4.88;;;25.40;74.00;;;;;;6249380;23;20038;-90
2023/06/11 09:43:52;;;;;;;16.60;5.22;;;25.60;73.40;;;;;;6245990;23;20000;-90
2023/06/11 09:46:19;;;;;;;13.63;4.43;;;25.70;72.90;;;;;;6221142;23;20036;-90
2023/06/11 09:48:46;;;;;;;13.27;4.63;;;25.90;72.50;;;;;;6246022;23;20016;-87
2023/06/11 09:51:12;;;;;;;16.58;4.20;;;26.00;71.90;;;;;;6246163;23;20435;-89
2023/06/11 09:53:40;;;;;;;17.50;4.93;;;26.20;71.30;;;;;;6247669;23;20081;-89
2023/06/11 09:56:06;;;;;;;16.10;5.00;;;26.20;71.00;;;;;;6245979;23;20016;-89
2023/06/11 09:58:33;;;;;;;12.63;5.22;;;26.40;70.80;;;;;;6245976;23;20008;-90
2023/06/11 10:01:00;;;;;;;10.90;4.32;;;26.50;70.40;;;;;;6246200;23;20305;-91
2023/06/11 10:03:27;;;;;;;14.73;4.65;;;26.60;70.30;;;;;;6247511;23;20019;-92
2023/06/11 10:05:53;;;;;;;10.90;4.53;;;26.60;69.80;;;;;;6246158;23;20079;-90
2023/06/11 10:08:22;;;;;;;11.23;4.50;;;26.70;69.70;;;;;;6246372;23;20012;-91
2023/06/11 10:10:55;;;;;;;17.30;4.70;;;26.90;69.30;;;;;;6246080;23;20121;-92
2023/06/11 10:13:34;;;;;;;15.00;4.88;;;27.00;68.60;;;;;;6246008;23;20131;-91
2023/06/11 10:16:07;;;;;;;14.93;4.87;;;27.10;68.10;;;;;;6248551;23;20027;-90
2023/06/11 10:18:32;;;;;;;13.30;4.45;;;27.20;67.90;;;;;;6246018;23;20431;-88
2023/06/11 10:21:00;;;;;;;11.27;4.25;;;27.30;67.60;;;;;;6246193;23;20007;-88
2023/06/11 10:23:38;;;;;;;12.38;4.95;;;27.50;67.10;;;;;;6246378;23;20452;-91
2023/06/11 10:26:04;;;;;;;11.90;5.32;;;27.70;66.40;;;;;;6248243;23;20000;-90
2023/06/11 10:28:48;;;;;;;13.80;5.53;;;27.70;65.70;;;;;;6245717;23;20313;-91
2023/06/11 10:31:27;;;;;;;11.98;4.38;;;27.70;65.40;;;;;;6246480;23;20000;-90
2023/06/11 10:34:04;;;;;;;11.75;4.70;;;27.90;65.40;;;;;;6246536;23;20428;-92
2023/06/11 10:36:41;;;;;;;10.77;5.20;;;27.90;65.20;;;;;;6245962;23;20062;-90
2023/06/11 10:39:23;;;;;;;11.88;5.07;;;28.10;65.00;;;;;;6260544;23;20004;-90
2023/06/11 10:42:00;;;;;;;13.60;5.22;;;28.20;64.40;;;;;;6246598;23;20039;-90
2023/06/11 10:44:26;;;;;;;20.65;5.45;;;28.20;64.20;;;;;;6253030;23;20012;-90
2023/06/11 10:46:53;;;;;;;12.13;5.35;;;28.30;64.10;;;;;;6260246;23;20019;-91
2023/06/11 10:49:25;;;;;;;20.70;5.68;;;28.20;63.80;;;;;;6259346;23;20014;-91
2023/06/11 10:51:52;;;;;;;15.32;5.28;;;28.20;63.90;;;;;;6257063;23;20000;-91
2023/06/11 10:54:36;;;;;;;16.88;6.00;;;28.20;63.90;;;;;;6262247;23;20000;-92
2023/06/11 10:57:03;;;;;;;15.38;5.63;;;28.10;63.80;;;;;;6249573;23;20016;-91
2023/06/11 10:59:32;;;;;;;16.70;6.15;;;28.10;64.00;;;;;;6251342;23;20000;-90
2023/06/11 11:01:57;;;;;;;14.82;5.00;;;28.10;64.10;;;;;;6249078;23;20008;-91
2023/06/11 11:04:23;;;;;;;15.65;5.47;;;28.10;64.20;;;;;;6248213;23;20054;-91
2023/06/11 11:06:52;;;;;;;20.15;5.85;;;28.30;63.90;;;;;;6247237;23;20013;-91
2023/06/11 11:09:22;;;;;;;18.38;5.78;;;28.30;63.70;;;;;;6253686;23;20008;-88
2023/06/11 11:11:52;;;;;;;13.38;5.82;;;28.40;63.40;;;;;;6270033;23;20023;-91
2023/06/11 11:14:18;;;;;;;15.43;5.55;;;28.60;63.30;;;;;;6247286;23;20001;-91
2023/06/11 11:16:47;;;;;;;13.95;5.47;;;28.80;62.90;;;;;;6247337;23;20070;-91
2023/06/11 11:19:13;;;;;;;13.25;6.18;;;28.90;62.70;;;;;;6249473;23;20010;-90
2023/06/11 11:21:39;;;;;;;22.13;6.85;;;29.10;62.30;;;;;;6249515;23;20004;-90
2023/06/11 11:24:14;;;;;;;11.80;5.95;;;29.00;62.10;;;;;;6247829;23;20000;-90
2023/06/11 11:26:44;;;;;;;12.13;5.75;;;28.90;61.80;;;;;;6250299;23;20031;-91
2023/06/11 11:29:09;;;;;;;13.98;6.18;;;28.80;62.00;;;;;;6256452;23;20059;-90
2023/06/11 11:31:37;;;;;;;14.27;5.78;;;28.90;62.00;;;;;;6257658;23;19996;-90
2023/06/11 11:34:02;;;;;;;13.38;5.97;;;29.00;61.70;;;;;;6252926;23;20055;-92
2023/06/11 11:36:28;;;;;;;14.98;6.22;;;29.20;61.50;;;;;;6249915;23;20493;-90
2023/06/11 11:38:54;;;;;;;10.73;5.47;;;29.40;61.10;;;;;;6250640;23;20012;-91
2023/06/11 11:41:23;;;;;;;20.63;5.55;;;29.60;60.80;;;;;;6254405;23;20009;-90
2023/06/11 11:43:50;;;;;;;13.82;6.07;;;29.70;60.60;;;;;;6262150;23;20008;-90
2023/06/11 11:46:18;;;;;;;13.82;5.32;;;29.80;60.60;;;;;;6259991;23;20000;-90
2023/06/11 11:48:45;;;;;;;15.32;5.38;;;29.90;60.90;;;;;;6256597;23;20075;-91
2023/06/11 11:51:13;;;;;;;10.23;5.47;;;29.80;60.90;;;;;;6261393;23;20004;-90
2023/06/11 11:53:40;;;;;;;14.15;5.57;;;29.80;61.20;;;;;;6265608;23;20015;-91
2023/06/11 11:56:06;;;;;;;14.10;5.63;;;29.90;61.20;;;;;;6262087;23;20008;-91
2023/06/11 11:58:37;;;;;;;12.73;5.85;;;29.80;60.70;;;;;;6259813;23;20050;-91
2023/06/11 12:01:03;;;;;;;14.52;5.40;;;29.90;60.40;;;;;;6251804;23;20042;-92
2023/06/11 12:03:28;;;;;;;16.40;6.50;;;30.00;60.20;;;;;;6258679;23;19992;-90
2023/06/11 12:05:59;;;;;;;10.27;5.45;;;30.20;60.00;;;;;;6267160;23;20007;-91
2023/06/11 12:08:29;;;;;;;22.20;6.93;;;30.20;59.90;;;;;;6254063;23;20026;-90
2023/06/11 12:10:58;;;;;;;13.95;5.72;;;30.20;59.50;;;;;;6267991;23;20006;-89
2023/06/11 12:13:25;;;;;;;12.85;5.88;;;30.30;59.30;;;;;;6267634;23;20446;-88
2023/06/11 12:15:50;;;;;;;14.70;5.55;;;30.40;59.10;;;;;;6256548;23;20439;-88
2023/06/11 12:18:18;;;;;;;13.93;5.65;;;30.70;59.70;;;;;;6260288;23;20031;-90
2023/06/11 12:20:44;;;;;;;13.45;5.68;;;31.00;59.00;;;;;;6252100;23;20011;-90
2023/06/11 12:23:10;;;;;;;14.18;5.70;;;31.20;58.50;;;;;;6251735;23;20008;-91
2023/06/11 12:25:36;;;;;;;12.43;5.43;;;31.40;57.70;;;;;;6250980;23;20462;-90
2023/06/11 12:28:03;;;;;;;10.93;5.40;;;31.70;56.90;;;;;;6252458;23;20012;-91
2023/06/11 12:30:30;;;;;;;14.52;5.72;;;31.90;56.40;;;;;;6250073;23;20031;-89
2023/06/11 12:32:57;;;;;;;8.88;4.82;;;31.90;56.10;;;;;;6249280;23;20374;-90
2023/06/11 12:35:23;;;;;;;9.88;5.13;;;31.90;56.40;;;;;;6249875;23;20375;-91
2023/06/11 12:37:51;;;;;;;10.50;5.53;;;32.10;56.20;;;;;;6251338;23;20011;-91